sensor_id;sensor_type;location;lat;lon;timestamp;temperature;humidity
65826;DHT22;52586;-43.152;172.732;2022-08-25T00:01:48;16.00;57.20
65826;DHT22;52586;-43.152;172.732;2022-08-25T00:04:22;15.90;57.10
65826;DHT22;52586;-43.152;172.732;2022-08-25T00:06:53;15.90;57.20
65826;DHT22;52586;-43.152;172.732;2022-08-25T00:09:25;15.90;57.20
65826;DHT22;52586;-43.152;172.732;2022-08-25T00:11:56;16.00;57.80
65826;DHT22;52586;-43.152;172.732;2022-08-25T00:14:28;16.00;57.20
65826;DHT22;52586;-43.152;172.732;2022-08-25T00:16:59;16.00;57.20
65826;DHT22;52586;-43.152;172.732;2022-08-25T00:19:34;16.00;57.20
65826;DHT22;52586;-43.152;172.732;2022-08-25T00:22:05;16.00;57.30
65826;DHT22;52586;-43.152;172.732;2022-08-25T00:24:37;16.00;57.30
65826;DHT22;52586;-43.152;172.732;2022-08-25T00:27:10;16.00;57.30
65826;DHT22;52586;-43.152;172.732;2022-08-25T00:29:41;16.00;57.20
65826;DHT22;52586;-43.152;172.732;2022-08-25T00:32:12;16.00;57.30
65826;DHT22;52586;-43.152;172.732;2022-08-25T00:34:45;16.00;57.90
65826;DHT22;52586;-43.152;172.732;2022-08-25T00:37:16;16.00;57.30
65826;DHT22;52586;-43.152;172.732;2022-08-25T00:39:46;16.10;57.30
65826;DHT22;52586;-43.152;172.732;2022-08-25T00:42:17;16.10;57.30
65826;DHT22;52586;-43.152;172.732;2022-08-25T00:44:48;16.00;57.20
65826;DHT22;52586;-43.152;172.732;2022-08-25T00:47:20;16.10;57.30
65826;DHT22;52586;-43.152;172.732;2022-08-25T00:49:54;16.10;57.40
65826;DHT22;52586;-43.152;172.732;2022-08-25T00:52:28;16.10;57.30
65826;DHT22;52586;-43.152;172.732;2022-08-25T00:55:01;16.10;57.30
65826;DHT22;52586;-43.152;172.732;2022-08-25T00:57:35;16.10;57.30
65826;DHT22;52586;-43.152;172.732;2022-08-25T01:00:23;16.10;57.30
65826;DHT22;52586;-43.152;172.732;2022-08-25T01:02:54;16.10;57.40
65826;DHT22;52586;-43.152;172.732;2022-08-25T01:05:28;16.20;57.30
65826;DHT22;52586;-43.152;172.732;2022-08-25T01:08:00;16.20;57.30
65826;DHT22;52586;-43.152;172.732;2022-08-25T01:10:32;16.20;57.30
65826;DHT22;52586;-43.152;172.732;2022-08-25T01:13:06;16.20;57.30
65826;DHT22;52586;-43.152;172.732;2022-08-25T01:15:37;16.20;57.30
65826;DHT22;52586;-43.152;172.732;2022-08-25T01:18:08;16.20;57.30
65826;DHT22;52586;-43.152;172.732;2022-08-25T01:20:41;16.20;57.30
65826;DHT22;52586;-43.152;172.732;2022-08-25T01:23:15;16.20;57.30
65826;DHT22;52586;-43.152;172.732;2022-08-25T01:25:50;16.30;57.40
65826;DHT22;52586;-43.152;172.732;2022-08-25T01:28:22;16.30;58.00
65826;DHT22;52586;-43.152;172.732;2022-08-25T01:30:53;16.30;57.40
65826;DHT22;52586;-43.152;172.732;2022-08-25T01:33:23;16.30;57.40
65826;DHT22;52586;-43.152;172.732;2022-08-25T01:35:54;16.30;57.40
65826;DHT22;52586;-43.152;172.732;2022-08-25T01:38:27;16.30;57.40
65826;DHT22;52586;-43.152;172.732;2022-08-25T01:40:58;16.30;57.40
65826;DHT22;52586;-43.152;172.732;2022-08-25T01:43:36;16.30;57.40
65826;DHT22;52586;-43.152;172.732;2022-08-25T01:46:07;16.30;57.40
65826;DHT22;52586;-43.152;172.732;2022-08-25T01:48:40;16.30;57.40
65826;DHT22;52586;-43.152;172.732;2022-08-25T01:51:11;16.40;57.40
65826;DHT22;52586;-43.152;172.732;2022-08-25T01:53:45;16.40;57.40
65826;DHT22;52586;-43.152;172.732;2022-08-25T01:56:17;16.40;57.40
65826;DHT22;52586;-43.152;172.732;2022-08-25T01:58:49;16.40;57.40
65826;DHT22;52586;-43.152;172.732;2022-08-25T02:01:21;16.40;57.40
65826;DHT22;52586;-43.152;172.732;2022-08-25T02:03:53;16.40;57.40
65826;DHT22;52586;-43.152;172.732;2022-08-25T02:06:27;16.40;57.40
65826;DHT22;52586;-43.152;172.732;2022-08-25T02:09:04;16.40;57.40
65826;DHT22;52586;-43.152;172.732;2022-08-25T02:11:36;16.40;57.40
65826;DHT22;52586;-43.152;172.732;2022-08-25T02:14:07;16.40;57.50
65826;DHT22;52586;-43.152;172.732;2022-08-25T02:16:39;16.40;57.40
65826;DHT22;52586;-43.152;172.732;2022-08-25T02:19:11;16.40;57.40
65826;DHT22;52586;-43.152;172.732;2022-08-25T02:21:42;16.50;57.40
65826;DHT22;52586;-43.152;172.732;2022-08-25T02:24:15;16.40;57.40
65826;DHT22;52586;-43.152;172.732;2022-08-25T02:26:46;16.40;57.50
65826;DHT22;52586;-43.152;172.732;2022-08-25T02:29:18;16.40;57.40
65826;DHT22;52586;-43.152;172.732;2022-08-25T02:31:48;16.40;57.50
65826;DHT22;52586;-43.152;172.732;2022-08-25T02:34:19;16.40;57.50
65826;DHT22;52586;-43.152;172.732;2022-08-25T02:36:50;16.40;57.50
65826;DHT22;52586;-43.152;172.732;2022-08-25T02:39:22;16.50;57.60
65826;DHT22;52586;-43.152;172.732;2022-08-25T02:41:53;16.50;57.60
65826;DHT22;52586;-43.152;172.732;2022-08-25T02:44:24;16.50;57.60
65826;DHT22;52586;-43.152;172.732;2022-08-25T02:46:55;16.50;57.60
65826;DHT22;52586;-43.152;172.732;2022-08-25T02:49:25;16.50;57.60
65826;DHT22;52586;-43.152;172.732;2022-08-25T02:51:56;16.50;57.50
65826;DHT22;52586;-43.152;172.732;2022-08-25T02:54:29;16.50;57.50
65826;DHT22;52586;-43.152;172.732;2022-08-25T02:57:00;16.50;57.60
65826;DHT22;52586;-43.152;172.732;2022-08-25T02:59:30;16.50;57.60
65826;DHT22;52586;-43.152;172.732;2022-08-25T03:02:02;16.50;57.60
65826;DHT22;52586;-43.152;172.732;2022-08-25T03:04:33;16.50;57.60
65826;DHT22;52586;-43.152;172.732;2022-08-25T03:07:04;16.50;57.60
65826;DHT22;52586;-43.152;172.732;2022-08-25T03:09:36;16.50;57.60
65826;DHT22;52586;-43.152;172.732;2022-08-25T03:12:07;16.50;57.60
65826;DHT22;52586;-43.152;172.732;2022-08-25T03:14:38;16.50;57.60
65826;DHT22;52586;-43.152;172.732;2022-08-25T03:17:09;16.50;57.60
65826;DHT22;52586;-43.152;172.732;2022-08-25T03:19:40;16.50;57.60
65826;DHT22;52586;-43.152;172.732;2022-08-25T03:22:11;16.50;57.60
65826;DHT22;52586;-43.152;172.732;2022-08-25T03:24:43;16.50;57.60
65826;DHT22;52586;-43.152;172.732;2022-08-25T03:27:14;16.50;57.70
65826;DHT22;52586;-43.152;172.732;2022-08-25T03:29:43;16.50;57.70
65826;DHT22;52586;-43.152;172.732;2022-08-25T03:32:14;16.50;57.70
65826;DHT22;52586;-43.152;172.732;2022-08-25T03:34:45;16.50;57.70
65826;DHT22;52586;-43.152;172.732;2022-08-25T03:37:16;16.50;57.70
65826;DHT22;52586;-43.152;172.732;2022-08-25T03:39:48;16.50;57.70
65826;DHT22;52586;-43.152;172.732;2022-08-25T03:42:19;16.50;57.80
65826;DHT22;52586;-43.152;172.732;2022-08-25T03:44:50;16.50;57.80
65826;DHT22;52586;-43.152;172.732;2022-08-25T03:47:21;16.50;57.80
65826;DHT22;52586;-43.152;172.732;2022-08-25T03:49:53;16.50;57.70
65826;DHT22;52586;-43.152;172.732;2022-08-25T03:52:23;16.60;57.80
65826;DHT22;52586;-43.152;172.732;2022-08-25T03:54:56;16.60;57.80
65826;DHT22;52586;-43.152;172.732;2022-08-25T03:57:27;16.50;57.70
65826;DHT22;52586;-43.152;172.732;2022-08-25T03:59:57;16.60;57.90
65826;DHT22;52586;-43.152;172.732;2022-08-25T04:02:31;16.50;57.80
65826;DHT22;52586;-43.152;172.732;2022-08-25T04:05:02;16.60;57.90
65826;DHT22;52586;-43.152;172.732;2022-08-25T04:07:33;16.50;57.80
65826;DHT22;52586;-43.152;172.732;2022-08-25T04:10:06;16.60;57.90
65826;DHT22;52586;-43.152;172.732;2022-08-25T04:12:38;16.60;57.90
65826;DHT22;52586;-43.152;172.732;2022-08-25T04:15:09;16.50;57.80
65826;DHT22;52586;-43.152;172.732;2022-08-25T04:17:40;16.60;57.90
65826;DHT22;52586;-43.152;172.732;2022-08-25T04:20:11;16.60;57.90
65826;DHT22;52586;-43.152;172.732;2022-08-25T04:22:42;16.60;57.90
65826;DHT22;52586;-43.152;172.732;2022-08-25T04:25:15;16.60;57.90
65826;DHT22;52586;-43.152;172.732;2022-08-25T04:27:45;16.60;57.90
65826;DHT22;52586;-43.152;172.732;2022-08-25T04:30:16;16.60;57.90
65826;DHT22;52586;-43.152;172.732;2022-08-25T04:32:47;16.60;57.90
65826;DHT22;52586;-43.152;172.732;2022-08-25T04:35:18;16.60;57.90
65826;DHT22;52586;-43.152;172.732;2022-08-25T04:37:49;16.60;58.00
65826;DHT22;52586;-43.152;172.732;2022-08-25T04:40:22;16.60;57.90
65826;DHT22;52586;-43.152;172.732;2022-08-25T04:42:53;16.60;58.00
65826;DHT22;52586;-43.152;172.732;2022-08-25T04:45:23;16.60;58.00
65826;DHT22;52586;-43.152;172.732;2022-08-25T04:47:54;16.60;58.00
65826;DHT22;52586;-43.152;172.732;2022-08-25T04:50:27;16.60;58.00
65826;DHT22;52586;-43.152;172.732;2022-08-25T04:52:58;16.60;58.00
65826;DHT22;52586;-43.152;172.732;2022-08-25T04:55:30;16.60;57.90
65826;DHT22;52586;-43.152;172.732;2022-08-25T04:58:01;16.60;57.90
65826;DHT22;52586;-43.152;172.732;2022-08-25T05:00:34;16.60;58.00
65826;DHT22;52586;-43.152;172.732;2022-08-25T05:03:05;16.60;58.00
65826;DHT22;52586;-43.152;172.732;2022-08-25T05:05:39;16.60;58.00
65826;DHT22;52586;-43.152;172.732;2022-08-25T05:08:09;16.60;58.00
65826;DHT22;52586;-43.152;172.732;2022-08-25T05:10:42;16.60;58.00
65826;DHT22;52586;-43.152;172.732;2022-08-25T05:13:13;16.60;58.00
65826;DHT22;52586;-43.152;172.732;2022-08-25T05:15:49;16.60;58.00
65826;DHT22;52586;-43.152;172.732;2022-08-25T05:18:21;16.60;58.10
65826;DHT22;52586;-43.152;172.732;2022-08-25T05:20:53;16.60;58.00
65826;DHT22;52586;-43.152;172.732;2022-08-25T05:23:24;16.60;58.00
65826;DHT22;52586;-43.152;172.732;2022-08-25T05:26:02;16.60;58.00
65826;DHT22;52586;-43.152;172.732;2022-08-25T05:28:33;16.60;58.00
65826;DHT22;52586;-43.152;172.732;2022-08-25T05:31:04;16.60;58.00
65826;DHT22;52586;-43.152;172.732;2022-08-25T05:33:36;16.60;58.00
65826;DHT22;52586;-43.152;172.732;2022-08-25T05:36:08;16.60;58.00
65826;DHT22;52586;-43.152;172.732;2022-08-25T05:38:39;16.60;58.00
65826;DHT22;52586;-43.152;172.732;2022-08-25T05:41:13;16.60;58.10
65826;DHT22;52586;-43.152;172.732;2022-08-25T05:43:46;16.50;58.10
65826;DHT22;52586;-43.152;172.732;2022-08-25T05:46:18;16.50;58.10
65826;DHT22;52586;-43.152;172.732;2022-08-25T05:48:49;16.60;58.10
65826;DHT22;52586;-43.152;172.732;2022-08-25T05:51:20;16.50;58.10
65826;DHT22;52586;-43.152;172.732;2022-08-25T05:53:51;16.50;58.10
65826;DHT22;52586;-43.152;172.732;2022-08-25T05:56:23;16.60;58.00
65826;DHT22;52586;-43.152;172.732;2022-08-25T05:58:54;16.50;58.00
65826;DHT22;52586;-43.152;172.732;2022-08-25T06:01:26;16.60;58.00
65826;DHT22;52586;-43.152;172.732;2022-08-25T06:04:13;16.50;58.00
65826;DHT22;52586;-43.152;172.732;2022-08-25T06:06:44;16.50;58.00
65826;DHT22;52586;-43.152;172.732;2022-08-25T06:09:15;16.50;58.10
65826;DHT22;52586;-43.152;172.732;2022-08-25T06:11:48;16.50;58.10
65826;DHT22;52586;-43.152;172.732;2022-08-25T06:14:20;16.50;58.10
65826;DHT22;52586;-43.152;172.732;2022-08-25T06:16:51;16.50;58.20
65826;DHT22;52586;-43.152;172.732;2022-08-25T06:19:21;16.50;58.20
65826;DHT22;52586;-43.152;172.732;2022-08-25T06:21:54;16.50;58.20
65826;DHT22;52586;-43.152;172.732;2022-08-25T06:24:26;16.50;58.20
65826;DHT22;52586;-43.152;172.732;2022-08-25T06:26:58;16.50;58.20
65826;DHT22;52586;-43.152;172.732;2022-08-25T06:29:29;16.50;58.10
65826;DHT22;52586;-43.152;172.732;2022-08-25T06:32:00;16.50;58.10
65826;DHT22;52586;-43.152;172.732;2022-08-25T06:34:30;16.50;58.10
65826;DHT22;52586;-43.152;172.732;2022-08-25T06:37:01;16.50;58.10
65826;DHT22;52586;-43.152;172.732;2022-08-25T06:39:32;16.50;58.20
65826;DHT22;52586;-43.152;172.732;2022-08-25T06:42:05;16.50;58.20
65826;DHT22;52586;-43.152;172.732;2022-08-25T06:44:36;16.50;58.20
65826;DHT22;52586;-43.152;172.732;2022-08-25T06:47:07;16.50;58.20
65826;DHT22;52586;-43.152;172.732;2022-08-25T06:49:38;16.50;58.30
65826;DHT22;52586;-43.152;172.732;2022-08-25T06:52:09;16.50;58.30
65826;DHT22;52586;-43.152;172.732;2022-08-25T06:54:40;16.50;58.20
65826;DHT22;52586;-43.152;172.732;2022-08-25T06:57:13;16.50;58.30
65826;DHT22;52586;-43.152;172.732;2022-08-25T06:59:44;16.50;58.20
65826;DHT22;52586;-43.152;172.732;2022-08-25T07:02:14;16.50;58.20
65826;DHT22;52586;-43.152;172.732;2022-08-25T07:04:45;16.50;58.20
65826;DHT22;52586;-43.152;172.732;2022-08-25T07:07:16;16.50;58.30
65826;DHT22;52586;-43.152;172.732;2022-08-25T07:09:46;16.50;58.30
65826;DHT22;52586;-43.152;172.732;2022-08-25T07:12:20;16.50;58.30
65826;DHT22;52586;-43.152;172.732;2022-08-25T07:14:50;16.40;58.30
65826;DHT22;52586;-43.152;172.732;2022-08-25T07:17:22;16.40;58.30
65826;DHT22;52586;-43.152;172.732;2022-08-25T07:19:53;16.40;58.30
65826;DHT22;52586;-43.152;172.732;2022-08-25T07:22:24;16.40;58.30
65826;DHT22;52586;-43.152;172.732;2022-08-25T07:24:55;16.50;58.40
65826;DHT22;52586;-43.152;172.732;2022-08-25T07:27:27;16.40;58.30
65826;DHT22;52586;-43.152;172.732;2022-08-25T07:29:58;16.50;58.40
65826;DHT22;52586;-43.152;172.732;2022-08-25T07:32:29;16.50;58.30
65826;DHT22;52586;-43.152;172.732;2022-08-25T07:34:59;16.40;58.20
65826;DHT22;52586;-43.152;172.732;2022-08-25T07:37:45;16.40;58.20
65826;DHT22;52586;-43.152;172.732;2022-08-25T07:40:19;16.40;58.20
65826;DHT22;52586;-43.152;172.732;2022-08-25T07:42:53;16.40;58.30
65826;DHT22;52586;-43.152;172.732;2022-08-25T07:45:25;16.40;58.30
65826;DHT22;52586;-43.152;172.732;2022-08-25T07:47:59;16.40;58.40
65826;DHT22;52586;-43.152;172.732;2022-08-25T07:50:30;16.40;58.40
65826;DHT22;52586;-43.152;172.732;2022-08-25T07:53:01;16.40;58.40
65826;DHT22;52586;-43.152;172.732;2022-08-25T07:55:32;16.40;58.40
65826;DHT22;52586;-43.152;172.732;2022-08-25T07:58:05;16.40;58.40
65826;DHT22;52586;-43.152;172.732;2022-08-25T08:00:37;16.40;58.30
65826;DHT22;52586;-43.152;172.732;2022-08-25T08:03:08;16.40;58.30
65826;DHT22;52586;-43.152;172.732;2022-08-25T08:05:41;16.30;58.30
65826;DHT22;52586;-43.152;172.732;2022-08-25T08:08:12;16.40;58.40
65826;DHT22;52586;-43.152;172.732;2022-08-25T08:10:43;16.40;58.40
65826;DHT22;52586;-43.152;172.732;2022-08-25T08:13:15;16.40;58.40
65826;DHT22;52586;-43.152;172.732;2022-08-25T08:15:46;16.30;58.40
65826;DHT22;52586;-43.152;172.732;2022-08-25T08:18:17;16.30;58.40
65826;DHT22;52586;-43.152;172.732;2022-08-25T08:20:48;16.40;58.40
65826;DHT22;52586;-43.152;172.732;2022-08-25T08:23:19;16.30;58.40
65826;DHT22;52586;-43.152;172.732;2022-08-25T08:25:54;16.40;58.40
65826;DHT22;52586;-43.152;172.732;2022-08-25T08:28:26;16.40;58.40
65826;DHT22;52586;-43.152;172.732;2022-08-25T08:30:57;16.40;58.40
65826;DHT22;52586;-43.152;172.732;2022-08-25T08:33:28;16.30;58.40
65826;DHT22;52586;-43.152;172.732;2022-08-25T08:36:01;16.30;58.30
65826;DHT22;52586;-43.152;172.732;2022-08-25T08:38:33;16.30;58.30
65826;DHT22;52586;-43.152;172.732;2022-08-25T08:41:27;16.30;58.30
65826;DHT22;52586;-43.152;172.732;2022-08-25T08:44:26;16.30;58.40
65826;DHT22;52586;-43.152;172.732;2022-08-25T08:47:03;16.30;58.40
65826;DHT22;52586;-43.152;172.732;2022-08-25T08:49:39;16.30;58.40
65826;DHT22;52586;-43.152;172.732;2022-08-25T08:52:14;16.30;58.40
65826;DHT22;52586;-43.152;172.732;2022-08-25T08:54:49;16.30;59.00
65826;DHT22;52586;-43.152;172.732;2022-08-25T08:57:25;16.30;58.40
65826;DHT22;52586;-43.152;172.732;2022-08-25T09:00:00;16.30;58.40
65826;DHT22;52586;-43.152;172.732;2022-08-25T09:02:36;16.30;58.40
65826;DHT22;52586;-43.152;172.732;2022-08-25T09:05:11;16.30;58.40
65826;DHT22;52586;-43.152;172.732;2022-08-25T09:07:47;16.30;58.40
65826;DHT22;52586;-43.152;172.732;2022-08-25T09:10:19;16.30;58.40
65826;DHT22;52586;-43.152;172.732;2022-08-25T09:12:54;16.30;58.40
65826;DHT22;52586;-43.152;172.732;2022-08-25T09:15:38;16.30;58.50
65826;DHT22;52586;-43.152;172.732;2022-08-25T09:18:29;16.30;58.50
65826;DHT22;52586;-43.152;172.732;2022-08-25T09:21:08;16.30;58.50
65826;DHT22;52586;-43.152;172.732;2022-08-25T09:23:57;16.30;58.50
65826;DHT22;52586;-43.152;172.732;2022-08-25T09:26:36;16.30;58.50
65826;DHT22;52586;-43.152;172.732;2022-08-25T09:29:11;16.30;58.50
65826;DHT22;52586;-43.152;172.732;2022-08-25T09:31:45;16.30;58.50
65826;DHT22;52586;-43.152;172.732;2022-08-25T09:34:19;16.30;58.50
65826;DHT22;52586;-43.152;172.732;2022-08-25T09:36:50;16.30;58.50
65826;DHT22;52586;-43.152;172.732;2022-08-25T09:39:21;16.30;58.50
65826;DHT22;52586;-43.152;172.732;2022-08-25T09:41:53;16.30;58.50
65826;DHT22;52586;-43.152;172.732;2022-08-25T09:44:26;16.30;58.50
65826;DHT22;52586;-43.152;172.732;2022-08-25T09:47:02;16.20;58.50
65826;DHT22;52586;-43.152;172.732;2022-08-25T09:49:39;16.30;58.60
65826;DHT22;52586;-43.152;172.732;2022-08-25T09:52:30;16.20;58.50
65826;DHT22;52586;-43.152;172.732;2022-08-25T09:55:29;16.30;58.60
65826;DHT22;52586;-43.152;172.732;2022-08-25T09:58:01;16.30;58.60
65826;DHT22;52586;-43.152;172.732;2022-08-25T10:00:42;16.30;58.50
65826;DHT22;52586;-43.152;172.732;2022-08-25T10:03:20;16.30;58.50
65826;DHT22;52586;-43.152;172.732;2022-08-25T10:06:00;16.30;58.60
65826;DHT22;52586;-43.152;172.732;2022-08-25T10:08:35;16.30;58.70
65826;DHT22;52586;-43.152;172.732;2022-08-25T10:11:08;16.30;58.60
65826;DHT22;52586;-43.152;172.732;2022-08-25T10:13:42;16.30;58.70
65826;DHT22;52586;-43.152;172.732;2022-08-25T10:16:21;16.30;58.70
65826;DHT22;52586;-43.152;172.732;2022-08-25T10:19:06;16.20;58.70
65826;DHT22;52586;-43.152;172.732;2022-08-25T10:21:39;16.20;58.70
65826;DHT22;52586;-43.152;172.732;2022-08-25T10:24:13;16.20;58.70
65826;DHT22;52586;-43.152;172.732;2022-08-25T10:26:56;16.20;58.70
65826;DHT22;52586;-43.152;172.732;2022-08-25T10:29:40;16.20;58.70
65826;DHT22;52586;-43.152;172.732;2022-08-25T10:32:17;16.30;60.30
65826;DHT22;52586;-43.152;172.732;2022-08-25T10:34:54;16.30;60.40
65826;DHT22;52586;-43.152;172.732;2022-08-25T10:37:34;16.40;60.20
65826;DHT22;52586;-43.152;172.732;2022-08-25T10:40:14;16.40;60.10
65826;DHT22;52586;-43.152;172.732;2022-08-25T10:42:59;16.40;60.00
65826;DHT22;52586;-43.152;172.732;2022-08-25T10:45:37;16.40;60.00
65826;DHT22;52586;-43.152;172.732;2022-08-25T10:48:25;16.40;59.90
65826;DHT22;52586;-43.152;172.732;2022-08-25T10:51:05;16.40;59.90
65826;DHT22;52586;-43.152;172.732;2022-08-25T10:53:51;16.30;59.80
65826;DHT22;52586;-43.152;172.732;2022-08-25T10:56:26;16.40;59.80
65826;DHT22;52586;-43.152;172.732;2022-08-25T10:59:24;16.40;59.70
65826;DHT22;52586;-43.152;172.732;2022-08-25T11:02:12;16.40;59.70
65826;DHT22;52586;-43.152;172.732;2022-08-25T11:04:47;16.40;59.60
65826;DHT22;52586;-43.152;172.732;2022-08-25T11:07:24;16.40;59.50
65826;DHT22;52586;-43.152;172.732;2022-08-25T11:10:01;16.40;59.60
65826;DHT22;52586;-43.152;172.732;2022-08-25T11:12:36;16.30;59.60
65826;DHT22;52586;-43.152;172.732;2022-08-25T11:15:11;16.30;59.60
65826;DHT22;52586;-43.152;172.732;2022-08-25T11:17:47;16.30;59.70
65826;DHT22;52586;-43.152;172.732;2022-08-25T11:20:22;16.30;59.70
65826;DHT22;52586;-43.152;172.732;2022-08-25T11:23:05;16.30;59.60
65826;DHT22;52586;-43.152;172.732;2022-08-25T11:25:40;16.30;59.60
65826;DHT22;52586;-43.152;172.732;2022-08-25T11:28:13;16.30;59.60
65826;DHT22;52586;-43.152;172.732;2022-08-25T11:30:45;16.30;59.60
65826;DHT22;52586;-43.152;172.732;2022-08-25T11:33:17;16.30;59.50
65826;DHT22;52586;-43.152;172.732;2022-08-25T11:35:51;16.30;59.50
65826;DHT22;52586;-43.152;172.732;2022-08-25T11:38:34;16.30;59.50
65826;DHT22;52586;-43.152;172.732;2022-08-25T11:41:16;16.30;59.50
65826;DHT22;52586;-43.152;172.732;2022-08-25T11:43:59;16.30;59.50
65826;DHT22;52586;-43.152;172.732;2022-08-25T11:46:43;16.30;59.60
65826;DHT22;52586;-43.152;172.732;2022-08-25T11:49:42;16.30;59.50
65826;DHT22;52586;-43.152;172.732;2022-08-25T11:52:43;16.30;59.50
65826;DHT22;52586;-43.152;172.732;2022-08-25T11:55:20;16.30;59.50
65826;DHT22;52586;-43.152;172.732;2022-08-25T11:58:12;16.30;59.50
65826;DHT22;52586;-43.152;172.732;2022-08-25T12:00:43;16.30;59.60
65826;DHT22;52586;-43.152;172.732;2022-08-25T12:03:51;16.30;59.50
65826;DHT22;52586;-43.152;172.732;2022-08-25T12:06:29;16.30;59.50
65826;DHT22;52586;-43.152;172.732;2022-08-25T12:09:20;16.30;59.40
65826;DHT22;52586;-43.152;172.732;2022-08-25T12:11:54;16.30;59.50
65826;DHT22;52586;-43.152;172.732;2022-08-25T12:14:50;16.30;59.50
65826;DHT22;52586;-43.152;172.732;2022-08-25T12:17:23;16.30;59.50
65826;DHT22;52586;-43.152;172.732;2022-08-25T12:19:57;16.30;59.50
65826;DHT22;52586;-43.152;172.732;2022-08-25T12:22:53;16.30;59.60
65826;DHT22;52586;-43.152;172.732;2022-08-25T12:28:40;16.30;59.60
65826;DHT22;52586;-43.152;172.732;2022-08-25T12:31:30;16.30;59.60
65826;DHT22;52586;-43.152;172.732;2022-08-25T12:34:20;16.30;59.50
65826;DHT22;52586;-43.152;172.732;2022-08-25T12:37:01;16.30;59.50
65826;DHT22;52586;-43.152;172.732;2022-08-25T12:39:35;16.30;59.50
65826;DHT22;52586;-43.152;172.732;2022-08-25T12:42:22;16.30;59.50
65826;DHT22;52586;-43.152;172.732;2022-08-25T12:47:52;16.30;59.50
65826;DHT22;52586;-43.152;172.732;2022-08-25T12:50:37;16.30;59.70
65826;DHT22;52586;-43.152;172.732;2022-08-25T12:53:11;16.30;59.60
65826;DHT22;52586;-43.152;172.732;2022-08-25T12:55:48;16.30;59.60
65826;DHT22;52586;-43.152;172.732;2022-08-25T12:58:20;16.30;59.70
65826;DHT22;52586;-43.152;172.732;2022-08-25T13:01:13;16.30;59.60
65826;DHT22;52586;-43.152;172.732;2022-08-25T13:07:00;16.30;59.60
65826;DHT22;52586;-43.152;172.732;2022-08-25T13:12:35;16.30;59.50
65826;DHT22;52586;-43.152;172.732;2022-08-25T13:15:13;16.30;59.50
65826;DHT22;52586;-43.152;172.732;2022-08-25T13:17:44;16.30;59.60
65826;DHT22;52586;-43.152;172.732;2022-08-25T13:20:21;16.30;59.60
65826;DHT22;52586;-43.152;172.732;2022-08-25T13:22:55;16.30;59.70
65826;DHT22;52586;-43.152;172.732;2022-08-25T13:25:29;16.20;59.60
65826;DHT22;52586;-43.152;172.732;2022-08-25T13:28:02;16.20;59.60
65826;DHT22;52586;-43.152;172.732;2022-08-25T13:30:35;16.20;59.60
65826;DHT22;52586;-43.152;172.732;2022-08-25T13:33:17;16.20;59.60
65826;DHT22;52586;-43.152;172.732;2022-08-25T13:35:51;16.20;59.60
65826;DHT22;52586;-43.152;172.732;2022-08-25T13:38:44;16.30;59.60
65826;DHT22;52586;-43.152;172.732;2022-08-25T13:41:19;16.30;59.50
65826;DHT22;52586;-43.152;172.732;2022-08-25T13:43:51;16.30;59.50
65826;DHT22;52586;-43.152;172.732;2022-08-25T13:46:24;16.30;59.60
65826;DHT22;52586;-43.152;172.732;2022-08-25T13:49:04;16.20;59.50
65826;DHT22;52586;-43.152;172.732;2022-08-25T13:51:37;16.20;59.60
65826;DHT22;52586;-43.152;172.732;2022-08-25T13:54:19;16.20;59.60
65826;DHT22;52586;-43.152;172.732;2022-08-25T13:56:53;16.20;59.60
65826;DHT22;52586;-43.152;172.732;2022-08-25T13:59:27;16.20;59.60
65826;DHT22;52586;-43.152;172.732;2022-08-25T14:02:00;16.20;59.60
65826;DHT22;52586;-43.152;172.732;2022-08-25T14:04:42;16.20;59.60
65826;DHT22;52586;-43.152;172.732;2022-08-25T14:07:27;16.20;59.60
65826;DHT22;52586;-43.152;172.732;2022-08-25T14:10:02;16.20;59.60
65826;DHT22;52586;-43.152;172.732;2022-08-25T14:12:36;16.20;59.50
65826;DHT22;52586;-43.152;172.732;2022-08-25T14:15:25;16.20;59.50
65826;DHT22;52586;-43.152;172.732;2022-08-25T14:18:03;16.20;59.50
65826;DHT22;52586;-43.152;172.732;2022-08-25T14:20:36;16.20;59.60
65826;DHT22;52586;-43.152;172.732;2022-08-25T14:23:16;16.20;59.60
65826;DHT22;52586;-43.152;172.732;2022-08-25T14:25:49;16.20;59.60
65826;DHT22;52586;-43.152;172.732;2022-08-25T14:28:22;16.20;59.60
65826;DHT22;52586;-43.152;172.732;2022-08-25T14:30:54;16.20;59.60
65826;DHT22;52586;-43.152;172.732;2022-08-25T14:33:29;16.20;59.60
65826;DHT22;52586;-43.152;172.732;2022-08-25T14:36:00;16.20;59.60
65826;DHT22;52586;-43.152;172.732;2022-08-25T14:38:33;16.20;59.70
65826;DHT22;52586;-43.152;172.732;2022-08-25T14:41:05;16.20;59.60
65826;DHT22;52586;-43.152;172.732;2022-08-25T14:43:36;16.20;59.60
65826;DHT22;52586;-43.152;172.732;2022-08-25T14:46:12;16.20;60.10
65826;DHT22;52586;-43.152;172.732;2022-08-25T14:48:46;16.20;59.50
65826;DHT22;52586;-43.152;172.732;2022-08-25T14:51:18;16.20;59.50
65826;DHT22;52586;-43.152;172.732;2022-08-25T14:53:52;16.20;59.60
65826;DHT22;52586;-43.152;172.732;2022-08-25T14:56:25;16.20;59.60
65826;DHT22;52586;-43.152;172.732;2022-08-25T14:58:55;16.20;59.60
65826;DHT22;52586;-43.152;172.732;2022-08-25T15:01:26;16.20;59.60
65826;DHT22;52586;-43.152;172.732;2022-08-25T15:04:02;16.10;59.60
65826;DHT22;52586;-43.152;172.732;2022-08-25T15:06:34;16.20;59.70
65826;DHT22;52586;-43.152;172.732;2022-08-25T15:09:08;16.10;59.60
65826;DHT22;52586;-43.152;172.732;2022-08-25T15:11:42;16.20;59.60
65826;DHT22;52586;-43.152;172.732;2022-08-25T15:14:14;16.20;59.60
65826;DHT22;52586;-43.152;172.732;2022-08-25T15:16:47;16.20;59.60
65826;DHT22;52586;-43.152;172.732;2022-08-25T15:19:19;16.20;59.60
65826;DHT22;52586;-43.152;172.732;2022-08-25T15:21:50;16.20;59.60
65826;DHT22;52586;-43.152;172.732;2022-08-25T15:24:23;16.20;59.60
65826;DHT22;52586;-43.152;172.732;2022-08-25T15:26:55;16.10;59.50
65826;DHT22;52586;-43.152;172.732;2022-08-25T15:29:28;16.10;59.50
65826;DHT22;52586;-43.152;172.732;2022-08-25T15:31:59;16.10;59.50
65826;DHT22;52586;-43.152;172.732;2022-08-25T15:34:31;16.10;59.60
65826;DHT22;52586;-43.152;172.732;2022-08-25T15:37:06;16.10;59.60
65826;DHT22;52586;-43.152;172.732;2022-08-25T15:39:42;16.10;59.60
65826;DHT22;52586;-43.152;172.732;2022-08-25T15:42:13;16.10;59.60
65826;DHT22;52586;-43.152;172.732;2022-08-25T15:44:44;16.10;59.50